Flag for USA

Past Weather in 27°56'57"N, 82°27'22"W, USA — Yesterday and Last 2 Weeks

Currently: 66 °F. Overcast. (Weather station: Tampa, Peter O Knight Airport, USA). See more current weather

Past Weather in 27°56'57"N, 82°27'22"W — Graph

°F

27°56'57"N, 82°27'22"W Temperature Yesterday

Maximum temperature yesterday: 75 °F (at 2:15 pm)
Minimum temperature yesterday: 46 °F (at 2:55 am)
Average temperature yesterday: 63 °F

High & Low Weather Summary for the Past Weeks

 TemperatureHumidityPressure
High82 °F (Jan 9, 12:35 pm)100% (Jan 6, 4:15 am)30.39 "Hg (Jan 6, 4:15 am)
Low43 °F (Jan 18, 6:35 am)27% (Jan 14, 1:35 pm)29.71 "Hg (Jan 16, 5:35 am)
Average65 °F69%30.11 "Hg
* Reported Jan 5 8:15 pm — Jan 20 8:55 pm, 27°56'57"N, 82°27'22"W. Weather by CustomWeather, © 2022

Note: Actual official high and low records may vary slightly from our data, if they occured in-between our weather recording intervals... More about our weather records

27°56'57"N, 82°27'22"W Weather History for the Previous 24 Hours

Scroll right to see more
 ConditionsComfort  
Time TempWeatherWind HumidityBarometerVisibility
8:55 pm
Thu, Jan 20
66 °FOvercast.No wind78%30.09 "Hg7 mi
8:35 pm68 °FPassing clouds.No wind73%30.09 "Hg7 mi
8:15 pm66 °FPassing clouds.3 mph83%30.09 "Hg7 mi
7:55 pm68 °FOvercast.No wind78%30.08 "Hg7 mi
7:35 pm68 °FMostly cloudy.3 mph78%30.08 "Hg10 mi
7:15 pm70 °FOvercast.3 mph73%30.08 "Hg10 mi
6:55 pm70 °FOvercast.5 mph73%30.07 "Hg10 mi
6:35 pm70 °FOvercast.3 mph69%30.06 "Hg7 mi
6:15 pm72 °FOvercast.5 mph65%30.05 "Hg7 mi
5:55 pm72 °FOvercast.5 mph65%30.05 "Hg7 mi
5:35 pm73 °FPartly sunny.5 mph61%30.05 "Hg7 mi
5:15 pm77 °FScattered clouds.7 mph54%30.04 "Hg7 mi
4:55 pm77 °FScattered clouds.6 mph54%30.04 "Hg7 mi
4:35 pm77 °FRain. Scattered clouds.6 mph54%30.04 "Hg7 mi
4:15 pm77 °FRain. Partly sunny.9 mph51%30.04 "Hg7 mi
3:55 pm79 °FLight rain. Partly sunny.9 mph51%30.04 "Hg7 mi
3:35 pm79 °FRain. Partly sunny.10 mph51%30.04 "Hg7 mi
3:15 pm79 °FOvercast.8 mph48%30.04 "Hg5 mi
2:35 pm79 °FMostly cloudy.9 mph45%30.06 "Hg7 mi
2:15 pm79 °FOvercast.8 mph45%30.06 "Hg7 mi
1:55 pm79 °FMostly cloudy.10 mph48%30.06 "Hg10 mi
1:35 pm79 °FPartly sunny.8 mph48%30.07 "Hg10 mi
1:15 pm77 °FPartly sunny.7 mph54%30.08 "Hg10 mi
12:55 pm77 °FOvercast.6 mph47%30.09 "Hg10 mi
12:35 pm77 °FOvercast.5 mph47%30.11 "Hg10 mi
12:15 pm75 °FOvercast.6 mph50%30.11 "Hg10 mi
11:55 am75 °FOvercast.7 mph50%30.13 "Hg10 mi
11:35 am73 °FPartly sunny.6 mph53%30.14 "Hg10 mi
11:15 am73 °FPartly sunny.5 mph61%30.15 "Hg10 mi
10:55 am72 °FOvercast.3 mph65%30.17 "Hg10 mi
10:35 am70 °FPartly sunny.No wind64%30.17 "Hg10 mi
10:15 am68 °FSunny.No wind69%30.17 "Hg10 mi
9:35 am64 °FSunny.No wind73%30.17 "Hg10 mi
9:15 am64 °FSunny.No wind68%30.17 "Hg10 mi
8:55 am63 °FSunny.No wind73%30.17 "Hg10 mi
8:35 am61 °FSunny.No wind77%30.17 "Hg10 mi
8:15 am59 °FScattered clouds.5 mph82%30.17 "Hg10 mi
7:55 am55 °FScattered clouds.5 mph100%30.16 "Hg10 mi
7:35 am54 °FScattered clouds.3 mph100%30.15 "Hg10 mi
7:15 am54 °FPassing clouds.3 mph100%30.15 "Hg10 mi
6:55 am54 °FPassing clouds.No wind100%30.14 "Hg10 mi
6:35 am54 °FPassing clouds.No wind100%30.14 "Hg10 mi
6:15 am54 °FPassing clouds.3 mph100%30.13 "Hg10 mi
5:55 am54 °FPassing clouds.3 mph100%30.13 "Hg10 mi
5:35 am54 °FPassing clouds.6 mph100%30.11 "Hg10 mi
5:15 am54 °FPassing clouds.5 mph100%30.12 "Hg10 mi
4:55 am54 °FPassing clouds.No wind100%30.11 "Hg10 mi
4:35 am54 °FPassing clouds.No wind100%30.12 "Hg10 mi
4:15 am54 °FPassing clouds.No wind100%30.12 "Hg10 mi
3:55 am54 °FPassing clouds.No wind100%30.12 "Hg7 mi
3:15 am55 °FPassing clouds.3 mph94%30.13 "Hg10 mi
2:55 am55 °FOvercast.No wind88%30.12 "Hg10 mi
2:15 am55 °FPassing clouds.3 mph88%30.12 "Hg10 mi
1:55 am55 °FPartly cloudy.6 mph88%30.13 "Hg10 mi
1:35 am57 °FPassing clouds.3 mph82%30.14 "Hg10 mi
1:15 am55 °FPassing clouds.6 mph88%30.15 "Hg10 mi
12:55 am55 °FPassing clouds.No wind88%30.16 "Hg10 mi
12:35 am57 °FPassing clouds.No wind88%30.17 "Hg10 mi
11:55 pm
Wed, Jan 19
59 °FMostly cloudy.3 mph77%30.16 "Hg10 mi
11:35 pm59 °FPassing clouds.No wind82%30.17 "Hg10 mi
11:15 pm59 °FPassing clouds.No wind77%30.17 "Hg10 mi
10:55 pm59 °FPassing clouds.5 mph82%30.17 "Hg10 mi
10:35 pm59 °FOvercast.No wind82%30.17 "Hg10 mi
10:15 pm59 °FOvercast.No wind82%30.17 "Hg10 mi
Weather by CustomWeather, © 2022

See weather overview